Time;durP1;ratioP1;P1;durP2;ratioP2;P2;SDS_P1;SDS_P2;PMS_P1;PMS_P2;Temp;Humidity;BMP_temperature;BMP_pressure;BME280_temperature;BME280_humidity;BME280_pressure;Samples;Min_cycle;Max_cycle;Signal;HPM_P1;HPM_P2
2021/12/23 00:01:16;;;;;;;0.10;0.10;;;-1.50;99.90;226.50;231333.00;;;;5040463;28;20223;-72
2021/12/23 00:03:44;;;;;;;0.17;0.17;;;-1.60;99.90;226.50;231333.00;;;;5045352;28;20195;-74
2021/12/23 00:06:12;;;;;;;0.20;0.20;;;-1.60;99.90;226.50;231333.00;;;;5047279;28;20385;-73
2021/12/23 00:08:40;;;;;;;0.20;0.20;;;-1.50;99.90;226.50;231333.00;;;;5038559;28;20195;-72
2021/12/23 00:11:08;;;;;;;0.20;0.20;;;-1.50;99.90;226.50;231333.00;;;;5048366;28;20187;-73
2021/12/23 00:13:39;;;;;;;0.20;0.20;;;-1.50;99.90;226.50;231333.00;;;;5040400;28;20623;-73
2021/12/23 00:16:17;;;;;;;0.20;0.20;;;-1.50;99.90;226.50;231333.00;;;;5047700;28;20198;-73
2021/12/23 00:18:52;;;;;;;0.20;0.20;;;-1.50;99.90;226.50;231333.00;;;;5043627;28;20734;-74
2021/12/23 00:24:06;;;;;;;0.20;0.20;;;-1.50;99.90;226.50;231333.00;;;;5034402;28;20657;-73
2021/12/23 00:26:34;;;;;;;0.20;0.20;;;-1.50;99.90;226.50;231333.00;;;;5038572;28;20199;-73
2021/12/23 00:29:04;;;;;;;0.20;0.20;;;-1.50;99.90;226.50;231333.00;;;;5045634;28;20956;-73
2021/12/23 00:31:32;;;;;;;0.20;0.20;;;-1.50;99.90;226.50;231333.00;;;;5022416;28;20296;-73
2021/12/23 00:34:00;;;;;;;0.20;0.20;;;-1.50;99.90;226.50;231333.00;;;;5050890;28;20194;-73
2021/12/23 00:36:31;;;;;;;0.20;0.20;;;-1.50;99.90;226.50;231333.00;;;;5032558;28;20191;-73
2021/12/23 00:39:01;;;;;;;0.20;0.20;;;-1.50;99.90;226.50;231333.00;;;;5044523;28;20210;-73
2021/12/23 00:41:31;;;;;;;0.20;0.20;;;-1.50;99.90;226.50;231333.00;;;;5041865;28;20210;-73
2021/12/23 00:44:00;;;;;;;0.20;0.20;;;-1.50;99.90;226.50;231333.00;;;;5043199;28;20197;-73
2021/12/23 00:46:29;;;;;;;0.20;0.20;;;-1.50;99.90;226.50;231333.00;;;;5043640;28;20222;-73
2021/12/23 00:48:57;;;;;;;0.10;0.10;;;-1.50;99.90;226.50;231333.00;;;;5039372;28;20195;-73
2021/12/23 00:51:25;;;;;;;0.20;0.20;;;-1.50;99.90;226.50;231333.00;;;;5046168;28;20218;-73
2021/12/23 00:54:02;;;;;;;0.20;0.20;;;-1.50;99.90;226.50;231333.00;;;;5037279;28;20195;-73
2021/12/23 00:56:35;;;;;;;0.20;0.20;;;-1.50;99.90;226.50;231333.00;;;;5042080;28;20187;-73
2021/12/23 00:59:04;;;;;;;0.20;0.20;;;-1.50;99.90;226.50;231333.00;;;;5034922;28;20219;-74
2021/12/23 01:01:34;;;;;;;0.10;0.10;;;-1.50;99.90;226.50;231333.00;;;;5049558;28;20227;-74
2021/12/23 01:04:02;;;;;;;0.20;0.20;;;-1.40;99.90;226.50;231333.00;;;;5046560;28;20202;-73
2021/12/23 01:06:30;;;;;;;0.20;0.20;;;-1.40;99.90;226.50;231333.00;;;;5039707;28;20202;-75
2021/12/23 01:08:58;;;;;;;0.20;0.20;;;-1.40;99.90;226.50;231333.00;;;;5041599;28;20253;-74
2021/12/23 01:11:27;;;;;;;0.20;0.20;;;-1.40;99.90;226.50;231333.00;;;;5052201;28;20277;-74
2021/12/23 01:14:14;;;;;;;0.20;0.20;;;-1.40;99.90;226.50;231333.00;;;;5043703;28;20214;-75
2021/12/23 01:17:11;;;;;;;0.20;0.20;;;-1.40;99.90;226.50;231333.00;;;;5049063;28;20190;-74
2021/12/23 01:19:40;;;;;;;0.20;0.20;;;-1.50;99.90;226.50;231333.00;;;;5049369;28;20202;-75
2021/12/23 01:22:09;;;;;;;0.20;0.20;;;-1.50;99.90;226.50;231333.00;;;;5051032;28;20214;-74
2021/12/23 01:24:37;;;;;;;0.20;0.20;;;-1.50;99.90;226.50;231333.00;;;;5044024;28;20195;-74
2021/12/23 01:27:06;;;;;;;0.20;0.20;;;-1.50;99.90;226.50;231333.00;;;;5047811;28;20199;-74
2021/12/23 01:29:34;;;;;;;0.20;0.20;;;-1.50;99.90;226.50;231333.00;;;;5043299;28;20205;-75
2021/12/23 01:32:06;;;;;;;0.20;0.20;;;-1.50;99.90;226.50;231333.00;;;;5049005;28;20210;-76
2021/12/23 01:34:36;;;;;;;0.20;0.20;;;-1.50;99.90;226.50;231333.00;;;;5047753;28;20591;-76
2021/12/23 01:37:06;;;;;;;0.20;0.20;;;-1.50;99.90;226.50;231333.00;;;;5042916;28;20194;-75
2021/12/23 01:39:34;;;;;;;0.10;0.10;;;-1.50;99.90;226.50;231333.00;;;;5046044;28;20592;-76
2021/12/23 01:42:02;;;;;;;0.20;0.20;;;-1.50;99.90;226.50;231333.00;;;;5047055;28;20223;-77
2021/12/23 01:44:31;;;;;;;0.20;0.20;;;-1.40;99.90;226.50;231333.00;;;;5039245;28;20195;-76
2021/12/23 01:46:59;;;;;;;0.20;0.20;;;-1.50;99.90;226.50;231333.00;;;;5050222;28;20186;-76
2021/12/23 01:49:28;;;;;;;0.20;0.20;;;-1.50;99.90;226.50;231333.00;;;;5044474;28;20687;-76
2021/12/23 01:51:56;;;;;;;0.15;0.15;;;-1.50;99.90;226.50;231333.00;;;;5041531;28;20292;-74
2021/12/23 01:54:24;;;;;;;0.20;0.20;;;-1.50;99.90;226.50;231333.00;;;;5048557;28;20678;-73
2021/12/23 01:56:52;;;;;;;0.20;0.20;;;-1.50;99.90;226.50;231333.00;;;;5048684;28;20190;-73
2021/12/23 01:59:20;;;;;;;0.20;0.20;;;-1.50;99.90;226.50;231333.00;;;;5040291;28;20211;-73
2021/12/23 02:01:48;;;;;;;0.20;0.20;;;-1.50;99.90;226.50;231333.00;;;;5047719;28;20205;-73
2021/12/23 02:04:16;;;;;;;0.20;0.20;;;-1.50;99.90;226.50;231333.00;;;;5054796;28;20226;-74
2021/12/23 02:06:45;;;;;;;0.20;0.20;;;-1.50;99.90;226.50;231333.00;;;;5049069;28;20253;-74
2021/12/23 02:09:13;;;;;;;0.20;0.20;;;-1.50;99.90;226.50;231333.00;;;;5039457;28;20199;-75
2021/12/23 02:11:42;;;;;;;0.20;0.20;;;-1.50;99.90;226.50;231333.00;;;;5047127;28;20211;-75
2021/12/23 02:14:10;;;;;;;0.20;0.20;;;-1.50;99.90;226.50;231333.00;;;;5039885;28;20246;-74
2021/12/23 02:16:38;;;;;;;0.10;0.10;;;-1.50;99.90;226.50;231333.00;;;;5034386;28;20349;-74
2021/12/23 02:19:17;;;;;;;0.20;0.20;;;-1.50;99.90;226.50;231333.00;;;;5054567;28;20221;-74
2021/12/23 02:21:48;;;;;;;0.20;0.20;;;-1.60;99.90;226.50;231333.00;;;;5038118;28;20210;-74
2021/12/23 02:24:17;;;;;;;0.20;0.20;;;-1.50;99.90;226.50;231333.00;;;;5047955;28;20714;-75
2021/12/23 02:26:45;;;;;;;0.20;0.20;;;-1.50;99.90;226.50;231333.00;;;;5054516;28;20194;-75
2021/12/23 02:29:13;;;;;;;0.20;0.20;;;-1.50;99.90;226.50;231333.00;;;;5036856;28;20229;-74
2021/12/23 02:31:41;;;;;;;0.20;0.20;;;-1.50;99.90;226.50;231333.00;;;;5042397;28;20845;-73
2021/12/23 02:34:09;;;;;;;0.20;0.20;;;-1.50;99.90;226.50;231333.00;;;;5057800;28;20198;-74
2021/12/23 02:36:37;;;;;;;0.20;0.20;;;-1.50;99.90;226.50;231333.00;;;;5050320;28;20191;-76
2021/12/23 02:39:06;;;;;;;0.20;0.20;;;-1.50;99.90;226.50;231333.00;;;;5048723;28;20280;-74
2021/12/23 02:41:41;;;;;;;0.10;0.10;;;-1.50;99.90;226.50;231333.00;;;;5049202;28;20210;-74
2021/12/23 02:44:09;;;;;;;0.10;0.10;;;-1.50;99.90;226.50;231333.00;;;;5045636;28;20221;-75
2021/12/23 02:46:37;;;;;;;0.20;0.20;;;-1.50;99.90;226.50;231333.00;;;;5039587;28;20206;-74
2021/12/23 02:49:05;;;;;;;0.13;0.13;;;-1.50;99.90;226.50;231333.00;;;;5036258;28;20260;-75
2021/12/23 02:51:34;;;;;;;0.20;0.20;;;-1.50;99.90;226.50;231333.00;;;;5032261;28;20218;-77
2021/12/23 02:54:02;;;;;;;0.20;0.20;;;-1.60;99.90;226.50;231333.00;;;;5039090;28;20191;-75
2021/12/23 02:56:33;;;;;;;0.20;0.20;;;-1.60;99.90;226.50;231333.00;;;;5037362;28;20187;-74
2021/12/23 02:59:01;;;;;;;0.20;0.20;;;-1.60;99.90;226.50;231333.00;;;;5047819;28;20207;-75
2021/12/23 03:01:29;;;;;;;0.20;0.20;;;-1.60;99.90;226.50;231333.00;;;;5034542;28;20277;-75
2021/12/23 03:03:59;;;;;;;0.20;0.20;;;-1.60;99.90;226.50;231333.00;;;;5040571;28;20239;-75
2021/12/23 03:06:27;;;;;;;0.20;0.20;;;-1.60;99.90;226.50;231333.00;;;;5046252;28;20217;-75
2021/12/23 03:08:59;;;;;;;0.20;0.20;;;-1.60;99.90;226.50;231333.00;;;;5038985;28;20236;-75
2021/12/23 03:11:29;;;;;;;0.20;0.20;;;-1.60;99.90;226.50;231333.00;;;;5052458;28;20549;-77
2021/12/23 03:13:59;;;;;;;0.10;0.10;;;-1.60;99.90;226.50;231333.00;;;;5043946;28;20198;-75
2021/12/23 03:16:32;;;;;;;0.20;0.20;;;-1.60;99.90;226.50;231333.00;;;;5033440;28;20202;-75
2021/12/23 03:19:00;;;;;;;0.20;0.20;;;-1.60;99.90;226.50;231333.00;;;;5044528;28;20486;-76
2021/12/23 03:21:28;;;;;;;0.20;0.20;;;-1.60;99.90;226.50;231333.00;;;;5040644;28;20558;-75
2021/12/23 03:23:56;;;;;;;0.20;0.20;;;-1.50;99.90;226.50;231333.00;;;;5048850;28;20263;-76
2021/12/23 03:26:27;;;;;;;0.20;0.20;;;-1.60;99.90;226.50;231333.00;;;;5049739;28;20202;-75
2021/12/23 03:28:55;;;;;;;0.20;0.20;;;-1.50;99.90;226.50;231333.00;;;;5045961;28;20194;-76
2021/12/23 03:31:24;;;;;;;0.20;0.20;;;-1.60;99.90;226.50;231333.00;;;;5034844;28;20636;-75
2021/12/23 03:33:52;;;;;;;0.20;0.20;;;-1.60;99.90;226.50;231333.00;;;;5033006;28;20718;-75
2021/12/23 03:36:20;;;;;;;0.20;0.20;;;-1.60;99.90;226.50;231333.00;;;;5043352;28;20741;-75
2021/12/23 03:38:48;;;;;;;0.20;0.20;;;-1.50;99.90;226.50;231333.00;;;;5046301;28;20203;-75
2021/12/23 03:41:16;;;;;;;0.20;0.20;;;-1.50;99.90;226.50;231333.00;;;;5050434;28;20245;-76
2021/12/23 03:43:44;;;;;;;0.10;0.10;;;-1.50;99.90;226.50;231333.00;;;;5054531;28;20198;-75
2021/12/23 03:46:12;;;;;;;0.20;0.20;;;-1.50;99.90;226.50;231333.00;;;;5053923;28;20199;-76
2021/12/23 03:48:42;;;;;;;0.20;0.20;;;-1.50;99.90;226.50;231333.00;;;;5047877;28;20277;-75
2021/12/23 03:51:10;;;;;;;0.10;0.10;;;-1.50;99.90;226.50;231333.00;;;;5044313;28;20191;-75
2021/12/23 03:53:38;;;;;;;0.10;0.10;;;-1.50;99.90;226.50;231333.00;;;;5051882;28;20253;-75
2021/12/23 03:56:06;;;;;;;0.20;0.20;;;-1.50;99.90;226.50;231333.00;;;;5052368;28;20190;-75
2021/12/23 03:58:34;;;;;;;0.20;0.20;;;-1.50;99.90;226.50;231333.00;;;;5046842;28;20217;-75
2021/12/23 04:01:03;;;;;;;0.20;0.20;;;-1.50;99.90;226.50;231333.00;;;;5044758;28;20249;-75
2021/12/23 04:03:31;;;;;;;0.20;0.20;;;-1.50;99.90;226.50;231333.00;;;;5054231;28;20214;-73
2021/12/23 04:06:01;;;;;;;0.20;0.20;;;-1.50;99.90;226.50;231333.00;;;;5056864;28;20199;-74
2021/12/23 04:08:28;;;;;;;0.20;0.20;;;-1.50;99.90;226.50;231333.00;;;;5051822;28;20680;-74
2021/12/23 04:10:58;;;;;;;0.20;0.20;;;-1.50;99.90;226.50;231333.00;;;;5050885;28;20226;-74
2021/12/23 04:13:27;;;;;;;0.20;0.20;;;-1.50;99.90;226.50;231333.00;;;;5056312;28;20869;-73
2021/12/23 04:15:55;;;;;;;0.10;0.10;;;-1.50;99.90;226.50;231333.00;;;;5051683;28;20191;-74
2021/12/23 04:18:23;;;;;;;0.10;0.10;;;-1.50;99.90;226.50;231333.00;;;;5055659;28;20202;-74
2021/12/23 04:20:54;;;;;;;0.20;0.20;;;-1.50;99.90;226.50;231333.00;;;;5042561;28;20214;-73
2021/12/23 04:23:24;;;;;;;0.20;0.20;;;-1.50;99.90;226.50;231333.00;;;;5043721;28;20507;-74
2021/12/23 04:25:53;;;;;;;0.20;0.20;;;-1.50;99.90;226.50;231333.00;;;;5045650;28;20194;-74
2021/12/23 04:28:23;;;;;;;0.20;0.20;;;-1.50;99.90;226.50;231333.00;;;;5062414;28;20202;-73
2021/12/23 04:30:53;;;;;;;0.20;0.20;;;-1.50;99.90;226.50;231333.00;;;;5054691;28;20259;-74
2021/12/23 04:33:21;;;;;;;0.20;0.20;;;-1.50;99.90;226.50;231333.00;;;;5049781;28;20199;-74
2021/12/23 04:35:49;;;;;;;0.20;0.20;;;-1.50;99.90;226.50;231333.00;;;;5057939;28;20195;-74
2021/12/23 04:38:17;;;;;;;0.10;0.10;;;-1.50;99.90;226.50;231333.00;;;;5051060;28;20203;-73
2021/12/23 04:40:47;;;;;;;0.20;0.20;;;-1.50;99.90;226.50;231333.00;;;;5049340;28;20627;-73
2021/12/23 04:43:14;;;;;;;0.20;0.20;;;-1.50;99.90;226.50;231333.00;;;;5043082;28;20219;-72
2021/12/23 04:45:42;;;;;;;0.20;0.20;;;-1.50;99.90;226.50;231333.00;;;;5054858;28;20660;-73
2021/12/23 04:48:10;;;;;;;0.20;0.20;;;-1.50;99.90;226.50;231333.00;;;;5049645;28;20293;-73
2021/12/23 04:50:38;;;;;;;0.20;0.20;;;-1.50;99.90;226.50;231333.00;;;;5046783;28;20198;-74
2021/12/23 04:53:06;;;;;;;0.20;0.20;;;-1.50;99.90;226.50;231333.00;;;;5049962;28;20256;-74
2021/12/23 04:55:35;;;;;;;0.20;0.20;;;-1.50;99.90;226.50;231333.00;;;;5044617;28;20226;-74
2021/12/23 04:58:04;;;;;;;0.20;0.20;;;-1.50;99.90;226.50;231333.00;;;;5037958;28;20187;-74
2021/12/23 05:00:32;;;;;;;0.20;0.20;;;-1.50;99.90;226.50;231333.00;;;;5043683;28;20218;-74
2021/12/23 05:03:00;;;;;;;0.20;0.20;;;-1.50;99.90;226.50;231333.00;;;;5053556;28;20225;-74
2021/12/23 05:05:29;;;;;;;0.20;0.20;;;-1.50;99.90;226.50;231333.00;;;;5048918;28;20225;-73
2021/12/23 05:07:57;;;;;;;0.20;0.20;;;-1.50;99.90;226.50;231333.00;;;;5040263;28;20187;-73
2021/12/23 05:10:26;;;;;;;0.20;0.20;;;-1.50;99.90;226.50;231333.00;;;;5046234;28;20202;-73
2021/12/23 05:12:59;;;;;;;0.20;0.20;;;-1.50;99.90;226.50;231333.00;;;;5054175;28;20222;-73
2021/12/23 05:15:29;;;;;;;0.20;0.20;;;-1.50;99.90;226.50;231333.00;;;;5050212;28;20194;-73
2021/12/23 05:17:57;;;;;;;0.20;0.20;;;-1.50;99.90;226.50;231333.00;;;;5046672;28;20244;-74
2021/12/23 05:20:26;;;;;;;0.20;0.20;;;-1.60;99.90;226.50;231333.00;;;;5044608;28;20226;-76
2021/12/23 05:22:55;;;;;;;0.20;0.20;;;-1.60;99.90;226.50;231333.00;;;;5039332;28;20219;-76
2021/12/23 05:25:23;;;;;;;0.20;0.20;;;-1.60;99.90;226.50;231333.00;;;;5041661;28;20211;-75
2021/12/23 05:27:54;;;;;;;0.20;0.20;;;-1.50;99.90;226.50;231333.00;;;;5045631;28;20198;-74
2021/12/23 05:30:24;;;;;;;0.20;0.20;;;-1.50;99.90;226.50;231333.00;;;;5045882;28;20198;-74
2021/12/23 05:32:55;;;;;;;0.20;0.20;;;-1.50;99.90;226.50;231333.00;;;;5037684;28;20210;-74
2021/12/23 05:35:25;;;;;;;0.20;0.20;;;-1.50;99.90;226.50;231333.00;;;;5035452;28;20217;-77
2021/12/23 05:37:54;;;;;;;0.20;0.20;;;-1.50;99.90;226.50;231333.00;;;;5046801;28;20252;-76
2021/12/23 05:40:25;;;;;;;0.20;0.20;;;-1.50;99.90;226.50;231333.00;;;;5054574;28;20312;-75
2021/12/23 05:42:54;;;;;;;0.20;0.20;;;-1.50;99.90;226.50;231333.00;;;;5055843;28;20263;-74
2021/12/23 05:45:21;;;;;;;0.20;0.20;;;-1.50;99.90;226.50;231333.00;;;;5056222;28;20191;-75
2021/12/23 05:47:50;;;;;;;0.20;0.20;;;-1.50;99.90;226.50;231333.00;;;;5042108;28;20191;-73
2021/12/23 05:50:23;;;;;;;0.20;0.20;;;-1.50;99.90;226.50;231333.00;;;;5039496;28;20268;-74
2021/12/23 05:52:52;;;;;;;0.20;0.20;;;-1.50;99.90;226.50;231333.00;;;;5034037;28;20272;-73
2021/12/23 05:55:21;;;;;;;0.20;0.20;;;-1.50;99.90;226.50;231333.00;;;;5042010;28;20199;-73
2021/12/23 05:57:50;;;;;;;0.20;0.20;;;-1.50;99.90;226.50;231333.00;;;;5047065;28;20253;-73
2021/12/23 06:00:24;;;;;;;0.20;0.20;;;-1.50;99.90;226.50;231333.00;;;;5057125;28;20218;-73
2021/12/23 06:02:53;;;;;;;0.20;0.20;;;-1.50;99.90;226.50;231333.00;;;;5053072;28;20214;-75
2021/12/23 06:05:24;;;;;;;0.20;0.20;;;-1.50;99.90;226.50;231333.00;;;;5044768;28;20207;-75
2021/12/23 06:07:52;;;;;;;0.20;0.20;;;-1.50;99.90;226.50;231333.00;;;;5048468;28;20741;-74
2021/12/23 06:10:21;;;;;;;0.20;0.20;;;-1.50;99.90;226.50;231333.00;;;;5036381;28;20241;-74
2021/12/23 06:12:50;;;;;;;0.20;0.20;;;-1.50;99.90;226.50;231333.00;;;;5046350;28;20206;-74
2021/12/23 06:15:18;;;;;;;0.20;0.20;;;-1.50;99.90;226.50;231333.00;;;;5034136;28;20223;-74
2021/12/23 06:17:46;;;;;;;0.20;0.20;;;-1.50;99.90;226.50;231333.00;;;;5033707;28;20202;-74
2021/12/23 06:20:15;;;;;;;0.20;0.20;;;-1.40;99.90;226.50;231333.00;;;;5037818;28;20210;-74
2021/12/23 06:22:44;;;;;;;0.20;0.20;;;-1.40;99.90;226.50;231333.00;;;;5041316;28;20237;-74
2021/12/23 06:25:13;;;;;;;0.20;0.20;;;-1.40;99.90;226.50;231333.00;;;;5041200;28;20221;-74
2021/12/23 06:27:43;;;;;;;0.20;0.20;;;-1.40;99.90;226.50;231333.00;;;;5046838;28;20265;-74
2021/12/23 06:30:17;;;;;;;0.20;0.20;;;-1.40;99.90;226.50;231333.00;;;;5051648;28;20193;-74
2021/12/23 06:32:47;;;;;;;0.20;0.20;;;-1.40;99.90;226.50;231333.00;;;;5037371;28;20210;-74
2021/12/23 06:35:16;;;;;;;0.20;0.20;;;-1.40;99.90;226.50;231333.00;;;;5035821;28;20195;-74
2021/12/23 06:37:46;;;;;;;0.20;0.20;;;-1.50;99.90;226.50;231333.00;;;;5040951;28;20597;-74
2021/12/23 06:40:15;;;;;;;0.20;0.20;;;-1.50;99.90;226.50;231333.00;;;;5042520;28;20244;-74
2021/12/23 06:42:44;;;;;;;0.20;0.20;;;-1.50;99.90;226.50;231333.00;;;;5041317;28;20622;-74
2021/12/23 06:45:13;;;;;;;0.20;0.20;;;-1.50;99.90;226.50;231333.00;;;;5047776;28;20249;-74
2021/12/23 06:47:42;;;;;;;0.20;0.20;;;-1.50;99.90;226.50;231333.00;;;;5031791;28;20190;-74
2021/12/23 06:50:11;;;;;;;0.20;0.20;;;-1.50;99.90;226.50;231333.00;;;;5055142;28;20201;-73
2021/12/23 06:52:40;;;;;;;0.20;0.20;;;-1.50;99.90;226.50;231333.00;;;;5044660;28;20226;-74
2021/12/23 06:55:12;;;;;;;0.20;0.20;;;-1.40;99.90;226.50;231333.00;;;;5055690;28;20659;-74
2021/12/23 06:57:42;;;;;;;0.10;0.10;;;-1.40;99.90;226.50;231333.00;;;;5040900;28;20527;-74
2021/12/23 07:00:16;;;;;;;0.20;0.20;;;-1.40;99.90;226.50;231333.00;;;;5036388;28;20241;-72
2021/12/23 07:02:44;;;;;;;0.20;0.20;;;-1.40;99.90;226.50;231333.00;;;;5043590;28;20587;-72
2021/12/23 07:05:14;;;;;;;0.20;0.20;;;-1.40;99.90;226.50;231333.00;;;;5038105;28;20206;-72
2021/12/23 07:07:53;;;;;;;0.20;0.20;;;-1.40;99.90;226.50;231333.00;;;;5049594;28;20202;-72
2021/12/23 07:10:25;;;;;;;0.20;0.20;;;-1.40;99.90;226.50;231333.00;;;;5056420;28;20194;-72
2021/12/23 07:12:54;;;;;;;0.20;0.20;;;-1.40;99.90;226.50;231333.00;;;;5054974;28;20269;-73
2021/12/23 07:15:24;;;;;;;0.20;0.20;;;-1.40;99.90;226.50;231333.00;;;;5042855;28;20671;-73
2021/12/23 07:17:54;;;;;;;0.10;0.10;;;-1.30;99.90;226.50;231333.00;;;;5051560;28;20186;-73
2021/12/23 07:20:23;;;;;;;0.20;0.20;;;-1.30;99.90;226.50;231333.00;;;;5038317;28;20194;-73
2021/12/23 07:22:51;;;;;;;0.10;0.10;;;-1.30;99.90;226.50;231333.00;;;;5042027;28;20215;-74
2021/12/23 07:25:19;;;;;;;0.20;0.20;;;-1.30;99.90;226.50;231333.00;;;;5041566;28;20195;-73
2021/12/23 07:27:49;;;;;;;0.20;0.20;;;-1.30;99.90;226.50;231333.00;;;;5046068;28;20194;-72
2021/12/23 07:30:19;;;;;;;0.20;0.20;;;-1.20;99.90;226.50;231333.00;;;;5051662;28;20723;-72
2021/12/23 07:32:48;;;;;;;0.20;0.20;;;-1.20;99.90;226.50;231333.00;;;;5045914;28;20275;-73
2021/12/23 07:35:16;;;;;;;0.20;0.20;;;-1.20;99.90;226.50;231333.00;;;;5048284;28;20243;-72
2021/12/23 07:37:45;;;;;;;0.20;0.20;;;-1.20;99.90;226.50;231333.00;;;;5038118;28;20252;-73
2021/12/23 07:40:16;;;;;;;0.20;0.20;;;-1.20;99.90;226.50;231333.00;;;;5038507;28;20734;-73
2021/12/23 07:42:53;;;;;;;0.20;0.20;;;-1.20;99.90;226.50;231333.00;;;;5043729;28;20249;-72
2021/12/23 07:45:27;;;;;;;0.20;0.20;;;-1.20;99.90;226.50;231333.00;;;;5064123;28;20198;-72
2021/12/23 07:47:55;;;;;;;0.20;0.20;;;-1.10;99.90;226.50;231333.00;;;;5063826;28;20512;-72
2021/12/23 07:50:24;;;;;;;0.20;0.20;;;-1.20;99.90;226.50;231333.00;;;;5056740;28;20206;-73
2021/12/23 07:52:52;;;;;;;0.20;0.20;;;-1.20;99.90;226.50;231333.00;;;;5057838;28;20252;-73
2021/12/23 07:55:21;;;;;;;0.10;0.10;;;-1.20;99.90;226.50;231333.00;;;;5056588;28;20198;-72
2021/12/23 07:57:50;;;;;;;0.20;0.20;;;-1.20;99.90;226.50;231333.00;;;;5049786;28;20206;-73
2021/12/23 08:00:19;;;;;;;0.20;0.20;;;-1.20;99.90;226.50;231333.00;;;;5049012;28;20218;-73
2021/12/23 08:02:49;;;;;;;0.20;0.20;;;-1.20;99.90;226.50;231333.00;;;;5037158;28;20508;-73
2021/12/23 08:05:17;;;;;;;0.20;0.20;;;-1.20;99.90;226.50;231333.00;;;;5041881;28;20191;-74
2021/12/23 08:07:45;;;;;;;0.20;0.20;;;-1.20;99.90;226.50;231333.00;;;;5049941;28;20265;-73
2021/12/23 08:10:14;;;;;;;0.20;0.20;;;-1.20;99.90;226.50;231333.00;;;;5038954;28;20245;-73
2021/12/23 08:12:42;;;;;;;0.20;0.20;;;-1.20;99.90;226.50;231333.00;;;;5038377;28;20210;-73
2021/12/23 08:15:10;;;;;;;0.20;0.20;;;-1.20;99.90;226.50;231333.00;;;;5043153;28;20190;-72
2021/12/23 08:17:39;;;;;;;0.20;0.20;;;-1.20;99.90;226.50;231333.00;;;;5045020;28;20199;-73
2021/12/23 08:20:15;;;;;;;0.20;0.20;;;-1.20;99.90;226.50;231333.00;;;;5044331;28;20198;-73
2021/12/23 08:22:44;;;;;;;0.20;0.20;;;-1.20;99.90;226.50;231333.00;;;;5048769;28;20724;-72
2021/12/23 08:25:14;;;;;;;0.20;0.20;;;-1.20;99.90;226.50;231333.00;;;;5042987;28;20210;-73
2021/12/23 08:27:43;;;;;;;0.20;0.20;;;-1.30;99.90;226.50;231333.00;;;;5036993;28;20195;-73
2021/12/23 08:30:15;;;;;;;0.20;0.20;;;-1.30;99.90;226.50;231333.00;;;;5040571;28;20198;-73
2021/12/23 08:32:43;;;;;;;0.20;0.20;;;-1.30;99.90;226.50;231333.00;;;;5042750;28;20680;-73
2021/12/23 08:35:13;;;;;;;0.20;0.20;;;-1.30;99.90;226.50;231333.00;;;;5035050;28;20222;-73
2021/12/23 08:37:46;;;;;;;0.20;0.20;;;-1.30;99.90;226.50;231333.00;;;;5051784;28;20590;-72
2021/12/23 08:40:17;;;;;;;0.20;0.20;;;-1.30;99.90;226.50;231333.00;;;;5031536;28;20201;-73
2021/12/23 08:42:46;;;;;;;0.20;0.20;;;-1.30;99.90;226.50;231333.00;;;;5040793;28;20284;-73
2021/12/23 08:45:14;;;;;;;0.10;0.10;;;-1.20;99.90;226.50;231333.00;;;;5047515;28;20195;-73
2021/12/23 08:47:42;;;;;;;0.20;0.20;;;-1.20;99.90;226.50;231333.00;;;;5043551;28;20195;-73
2021/12/23 08:50:15;;;;;;;0.20;0.20;;;-1.10;99.90;226.50;231333.00;;;;5051343;28;20198;-73
2021/12/23 08:52:44;;;;;;;0.20;0.20;;;-1.10;99.90;226.50;231333.00;;;;5052731;28;20227;-73
2021/12/23 08:55:14;;;;;;;0.20;0.20;;;-1.10;99.90;226.50;231333.00;;;;5036043;28;20253;-73
2021/12/23 08:57:42;;;;;;;0.20;0.20;;;-1.00;99.90;226.50;231333.00;;;;5038383;28;20202;-73
2021/12/23 09:00:15;;;;;;;0.10;0.10;;;-1.00;99.90;226.50;231333.00;;;;5052786;28;20195;-73
2021/12/23 09:02:46;;;;;;;0.20;0.20;;;-0.90;99.90;226.50;231333.00;;;;5045970;28;20272;-73
2021/12/23 09:05:19;;;;;;;0.20;0.20;;;-0.80;99.90;226.50;231333.00;;;;5053208;28;20611;-73
2021/12/23 09:07:47;;;;;;;0.20;0.20;;;-0.80;99.90;226.50;231333.00;;;;5050321;28;20199;-73
2021/12/23 09:10:15;;;;;;;0.10;0.10;;;-0.80;99.90;226.50;231333.00;;;;5047400;28;20198;-73
2021/12/23 09:12:44;;;;;;;0.20;0.20;;;-0.70;99.90;226.50;231333.00;;;;5048875;28;20234;-73
2021/12/23 09:15:12;;;;;;;0.20;0.20;;;-0.70;99.90;226.50;231333.00;;;;5034998;28;20256;-73
2021/12/23 09:17:41;;;;;;;0.10;0.10;;;-0.60;99.90;226.50;231333.00;;;;5041874;28;20194;-73
2021/12/23 09:20:14;;;;;;;0.20;0.20;;;-0.60;99.90;226.50;231333.00;;;;5035939;28;20261;-73
2021/12/23 09:22:44;;;;;;;0.20;0.20;;;-0.50;99.90;226.50;231333.00;;;;5020804;28;20215;-73
2021/12/23 09:25:23;;;;;;;0.20;0.20;;;-0.50;99.90;226.50;231333.00;;;;5050047;28;20614;-73
2021/12/23 09:28:19;;;;;;;0.20;0.20;;;-0.50;99.90;226.50;231333.00;;;;5039733;28;20283;-73
2021/12/23 09:33:33;;;;;;;0.10;0.10;;;-0.40;99.90;226.50;231333.00;;;;5034347;28;20544;-73
2021/12/23 09:36:01;;;;;;;0.20;0.20;;;-0.40;99.90;226.50;231333.00;;;;5052164;28;20194;-73
2021/12/23 09:38:31;;;;;;;0.20;0.20;;;-0.30;99.90;226.50;231333.00;;;;5032983;28;20237;-73
2021/12/23 09:41:04;;;;;;;0.10;0.10;;;-0.20;99.90;226.50;231333.00;;;;5039840;28;20801;-73
2021/12/23 09:43:34;;;;;;;0.20;0.20;;;-0.20;99.90;226.50;231333.00;;;;5034132;28;20321;-73
2021/12/23 09:46:02;;;;;;;0.10;0.10;;;-0.10;99.90;226.50;231333.00;;;;5052154;28;20195;-73
2021/12/23 09:48:33;;;;;;;0.20;0.20;;;-0.10;99.90;226.50;231333.00;;;;5043851;28;20194;-73
2021/12/23 09:51:04;;;;;;;0.20;0.20;;;0.00;99.90;226.50;231333.00;;;;5046989;28;20606;-73
2021/12/23 09:53:39;;;;;;;0.20;0.20;;;0.00;99.90;226.50;231333.00;;;;5035163;28;20261;-73
2021/12/23 09:56:09;;;;;;;0.20;0.20;;;0.10;99.90;226.50;231333.00;;;;5033081;28;20287;-74
2021/12/23 09:58:38;;;;;;;0.20;0.20;;;0.20;99.90;226.50;231333.00;;;;5036827;28;20244;-74
2021/12/23 10:01:08;;;;;;;0.20;0.20;;;0.30;99.90;226.50;231333.00;;;;5045809;28;20198;-74
2021/12/23 10:03:38;;;;;;;0.20;0.20;;;0.30;99.90;226.50;231333.00;;;;5042160;28;20224;-74
2021/12/23 10:06:07;;;;;;;0.10;0.10;;;0.30;99.90;226.50;231333.00;;;;5047271;28;20187;-75
2021/12/23 10:08:39;;;;;;;0.20;0.20;;;0.30;99.90;226.50;231333.00;;;;5037480;28;20211;-73
2021/12/23 10:11:15;;;;;;;0.10;0.10;;;0.30;99.90;226.50;231333.00;;;;5032614;28;20209;-73
2021/12/23 10:31:32;;;;;;;0.20;0.20;;;0.30;99.90;226.50;231333.00;;;;5045357;28;20261;-73
2021/12/23 10:39:53;;;;;;;0.20;0.20;;;0.20;99.90;226.50;231333.00;;;;5052250;28;20198;-72
2021/12/23 10:42:27;;;;;;;0.20;0.20;;;0.30;99.90;226.50;231333.00;;;;5038893;28;20235;-72
2021/12/23 10:44:59;;;;;;;0.20;0.20;;;0.30;99.90;226.50;231333.00;;;;5027635;28;20188;-73
2021/12/23 10:47:35;;;;;;;0.20;0.20;;;0.30;99.90;226.50;231333.00;;;;5032022;28;20288;-73
2021/12/23 10:50:20;;;;;;;0.20;0.20;;;0.30;99.90;226.50;231333.00;;;;5049605;28;20605;-73
2021/12/23 10:52:53;;;;;;;0.20;0.20;;;0.30;99.90;226.50;231333.00;;;;5038144;28;20678;-73
2021/12/23 10:58:15;;;;;;;0.20;0.20;;;0.40;99.90;226.50;231333.00;;;;5031948;28;20249;-74
2021/12/23 11:00:49;;;;;;;0.20;0.20;;;0.50;99.90;226.50;231333.00;;;;5031966;28;20199;-74
2021/12/23 11:03:25;;;;;;;0.13;0.13;;;0.60;99.90;226.50;231333.00;;;;5039225;28;20324;-73
2021/12/23 11:06:06;;;;;;;0.20;0.20;;;0.70;99.90;226.50;231333.00;;;;5050413;28;20190;-73
2021/12/23 11:08:45;;;;;;;0.20;0.20;;;0.70;99.90;226.50;231333.00;;;;5031926;28;20187;-74
2021/12/23 11:11:26;;;;;;;0.20;0.20;;;0.80;99.90;226.50;231333.00;;;;5049256;28;20221;-74
2021/12/23 11:28:42;;;;;;;0.15;0.15;;;0.90;99.90;226.50;231333.00;;;;5051219;28;20195;-74
2021/12/23 11:37:15;;;;;;;0.13;0.13;;;1.20;99.90;226.50;231333.00;;;;5050241;28;20272;-72
2021/12/23 11:39:54;;;;;;;0.10;0.10;;;1.20;99.90;226.50;231333.00;;;;5039239;28;20608;-72
2021/12/23 11:42:32;;;;;;;0.10;0.10;;;1.30;99.90;226.50;231333.00;;;;5051203;28;20225;-73
2021/12/23 11:45:01;;;;;;;0.20;0.20;;;1.30;99.90;226.50;231333.00;;;;5050943;28;20199;-72